createdAt,value
2019-05-29T00:00:53.454Z,97488.02
2019-05-29T00:03:28.300Z,97498.42
2019-05-29T00:06:02.942Z,97497.39
2019-05-29T00:08:36.274Z,97499.42
2019-05-29T00:11:10.709Z,97507.91
2019-05-29T00:13:45.297Z,97507.91
2019-05-29T00:16:45.739Z,97500.18
2019-05-29T00:19:20.321Z,97501.55
2019-05-29T00:21:55.273Z,97505.75
2019-05-29T00:24:29.919Z,97511.69
2019-05-29T00:27:05.410Z,97514.47
2019-05-29T00:29:40.128Z,97517.53
2019-05-29T00:32:15.142Z,97518.78
2019-05-29T00:34:50.058Z,97519.55
2019-05-29T00:37:26.275Z,97527.89
2019-05-29T00:40:01.268Z,97527.89
2019-05-29T00:42:36.309Z,97529.00
2019-05-29T00:45:11.510Z,97532.69
2019-05-29T00:47:46.280Z,97535.73
2019-05-29T00:50:21.601Z,97534.55
2019-05-29T00:52:56.595Z,97531.91
2019-05-29T00:55:31.272Z,97538.63
2019-05-29T00:58:07.126Z,97540.39
2019-05-29T01:00:42.113Z,97550.92
2019-05-29T01:03:17.896Z,97550.65
2019-05-29T01:05:52.715Z,97549.64
2019-05-29T01:08:26.102Z,97549.64
2019-05-29T01:11:00.550Z,97557.09
2019-05-29T01:13:36.296Z,97566.09
2019-05-29T01:16:11.356Z,97570.91
2019-05-29T01:18:45.948Z,97582.31
2019-05-29T01:21:20.755Z,97582.47
2019-05-29T01:23:56.278Z,97582.61
2019-05-29T01:26:30.936Z,97580.33
2019-05-29T01:29:05.644Z,97578.66
2019-05-29T01:31:40.275Z,97584.48
2019-05-29T01:34:15.678Z,97582.20
2019-05-29T01:36:50.801Z,97585.74
2019-05-29T01:39:25.270Z,97590.69
2019-05-29T01:41:59.943Z,97596.61
2019-05-29T01:44:35.926Z,97596.61
2019-05-29T01:47:10.660Z,97595.34
2019-05-29T01:49:45.247Z,97607.37
2019-05-29T01:52:20.246Z,97602.81
2019-05-29T01:54:54.943Z,97607.73
2019-05-29T01:57:29.629Z,97611.53
2019-05-29T02:00:04.275Z,97611.91
2019-05-29T02:02:40.074Z,97620.04
2019-05-29T02:05:15.771Z,97619.14
2019-05-29T02:07:49.092Z,97623.45
2019-05-29T02:10:24.334Z,97630.55
2019-05-29T02:13:00.527Z,97633.42
2019-05-29T02:15:37.270Z,97637.98
2019-05-29T02:18:11.938Z,97637.22
2019-05-29T02:20:45.269Z,97645.81
2019-05-29T02:23:22.082Z,97637.33
2019-05-29T02:25:56.731Z,97637.33
2019-05-29T02:28:31.341Z,97654.36
2019-05-29T02:31:06.274Z,97655.72
2019-05-29T02:33:41.111Z,97661.77
2019-05-29T02:36:15.741Z,97670.83
2019-05-29T02:38:50.290Z,97674.16
2019-05-29T02:41:26.207Z,97679.59
2019-05-29T02:44:01.271Z,97679.59
2019-05-29T02:46:36.125Z,97686.13
2019-05-29T02:49:10.963Z,97692.67
2019-05-29T02:51:44.270Z,97689.61
2019-05-29T02:54:20.185Z,97699.17
2019-05-29T02:56:54.961Z,97699.17
2019-05-29T02:59:30.190Z,97713.14
2019-05-29T03:02:06.022Z,97713.14
2019-05-29T03:04:40.938Z,97720.72
2019-05-29T03:07:15.756Z,97723.59
2019-05-29T03:09:50.643Z,97738.70
2019-05-29T03:12:26.950Z,97738.70
2019-05-29T03:15:02.065Z,97745.04
2019-05-29T03:17:36.764Z,97748.78
2019-05-29T03:20:11.758Z,97762.44
2019-05-29T03:22:46.275Z,97766.19
2019-05-29T03:25:20.930Z,97768.97
2019-05-29T03:30:41.294Z,97782.30
2019-05-29T03:33:08.709Z,97781.09
2019-05-29T03:35:48.050Z,97795.34
2019-05-29T03:38:20.534Z,97805.50
2019-05-29T03:40:57.295Z,97813.22
2019-05-29T03:43:35.045Z,97814.77
2019-05-29T03:46:26.545Z,97821.15
2019-05-29T03:48:45.473Z,97825.54
2019-05-29T03:51:20.263Z,97830.00
2019-05-29T03:53:54.776Z,97834.22
2019-05-29T03:56:30.712Z,97837.15
2019-05-29T03:59:06.542Z,97842.86
2019-05-29T04:01:47.272Z,97847.50
2019-05-29T04:04:21.937Z,97857.71
2019-05-29T04:06:55.278Z,97855.92
2019-05-29T04:09:31.122Z,97869.23
2019-05-29T04:12:07.308Z,97869.23
2019-05-29T04:14:42.913Z,97876.55
2019-05-29T04:17:16.574Z,97885.06
2019-05-29T04:19:51.772Z,97892.84
2019-05-29T04:22:32.905Z,97898.41
2019-05-29T04:25:08.317Z,97898.41
2019-05-29T04:27:44.700Z,97895.92
2019-05-29T04:30:19.304Z,97907.66
2019-05-29T04:32:53.785Z,97913.36
2019-05-29T04:35:28.311Z,97919.54
2019-05-29T04:38:03.275Z,97924.41
2019-05-29T04:40:39.852Z,97927.48
2019-05-29T04:43:14.928Z,97935.20
2019-05-29T04:45:49.642Z,97945.33
2019-05-29T04:48:24.310Z,97941.78
2019-05-29T04:50:58.928Z,97958.75
2019-05-29T04:53:35.497Z,97952.06
2019-05-29T04:56:13.933Z,97961.31
2019-05-29T04:58:48.307Z,97967.50
2019-05-29T05:01:23.253Z,97970.13
2019-05-29T05:03:57.764Z,97974.80
2019-05-29T05:06:33.208Z,97981.55
2019-05-29T05:09:09.261Z,97981.55
2019-05-29T05:11:43.912Z,97986.16
2019-05-29T05:14:18.292Z,97992.45
2019-05-29T05:16:53.124Z,97990.88
2019-05-29T05:19:27.664Z,98005.95
2019-05-29T05:22:06.302Z,98005.95
2019-05-29T05:24:43.943Z,98005.48
2019-05-29T05:27:17.746Z,98022.60
2019-05-29T05:29:52.648Z,98022.60
2019-05-29T05:32:27.293Z,98021.00
2019-05-29T05:35:02.283Z,98032.12
2019-05-29T05:37:37.103Z,98033.73
2019-05-29T05:40:11.947Z,98035.98
2019-05-29T05:42:46.945Z,98035.98
2019-05-29T05:45:23.148Z,98034.77
2019-05-29T05:47:58.220Z,98047.18
2019-05-29T05:50:33.319Z,98047.18
2019-05-29T05:53:08.282Z,98048.09
2019-05-29T05:55:42.932Z,98051.61
2019-05-29T05:58:17.619Z,98051.61
2019-05-29T06:00:53.318Z,98049.89
2019-05-29T06:03:27.935Z,98049.75
2019-05-29T06:06:02.681Z,98054.69
2019-05-29T06:08:38.094Z,98049.75
2019-05-29T06:11:12.671Z,98065.59
2019-05-29T06:13:47.166Z,98065.59
2019-05-29T06:16:21.672Z,98059.48
2019-05-29T06:18:56.272Z,98061.64
2019-05-29T06:21:30.866Z,98066.11
2019-05-29T06:24:04.393Z,98069.30
2019-05-29T06:26:39.054Z,98070.50
2019-05-29T06:29:13.681Z,98071.76
2019-05-29T06:31:48.339Z,98071.76
2019-05-29T06:34:23.292Z,98074.31
2019-05-29T06:36:59.277Z,98080.66
2019-05-29T06:39:35.325Z,98078.72
2019-05-29T06:42:10.328Z,98084.58
2019-05-29T06:44:48.628Z,98091.34
2019-05-29T06:47:21.902Z,98097.87
2019-05-29T06:49:56.550Z,98103.03
2019-05-29T06:52:31.321Z,98106.75
2019-05-29T06:55:07.274Z,98106.20
2019-05-29T06:57:42.647Z,98105.65
2019-05-29T07:00:34.377Z,98100.20
2019-05-29T07:02:53.242Z,98107.19
2019-05-29T07:05:27.718Z,98110.09
2019-05-29T07:08:16.481Z,98104.25
2019-05-29T07:10:38.522Z,98120.68
2019-05-29T07:13:13.394Z,98123.36
2019-05-29T07:15:48.279Z,98123.83
2019-05-29T07:18:23.271Z,98127.59
2019-05-29T07:20:57.951Z,98130.60
2019-05-29T07:23:32.654Z,98135.63
2019-05-29T07:26:07.307Z,98137.53
2019-05-29T07:29:03.081Z,98142.58
2019-05-29T07:31:19.820Z,98140.45
2019-05-29T07:33:55.953Z,98143.25
2019-05-29T07:36:30.941Z,98150.58
2019-05-29T07:39:05.286Z,98158.44
2019-05-29T07:41:39.692Z,98157.20
2019-05-29T07:44:13.068Z,98157.20
2019-05-29T07:46:48.854Z,98157.61
2019-05-29T07:49:38.070Z,98170.15
2019-05-29T07:52:01.264Z,98170.15
2019-05-29T07:54:37.283Z,98170.25
2019-05-29T07:57:11.951Z,98173.70
2019-05-29T07:59:46.770Z,98172.53
2019-05-29T08:02:21.947Z,98176.36
2019-05-29T08:04:56.745Z,98176.73
2019-05-29T08:07:31.673Z,98183.50
2019-05-29T08:10:08.284Z,98183.50
2019-05-29T08:12:49.985Z,98185.41
2019-05-29T08:15:18.280Z,98194.43
2019-05-29T08:17:52.886Z,98193.94
2019-05-29T08:20:27.298Z,98193.94
2019-05-29T08:23:02.285Z,98194.69
2019-05-29T08:25:37.109Z,98193.55
2019-05-29T08:28:11.940Z,98197.72
2019-05-29T08:30:50.311Z,98198.22
2019-05-29T08:33:21.331Z,98192.88
2019-05-29T08:36:00.114Z,98197.38
2019-05-29T08:38:33.184Z,98200.44
2019-05-29T08:41:07.677Z,98204.69
2019-05-29T08:43:42.525Z,98204.69
2019-05-29T08:46:17.070Z,98207.64
2019-05-29T08:48:52.229Z,98215.31
2019-05-29T08:51:26.887Z,98220.00
2019-05-29T08:54:01.336Z,98220.00
2019-05-29T08:56:35.764Z,98225.37
2019-05-29T08:59:08.666Z,98222.83
2019-05-29T09:01:44.693Z,98226.27
2019-05-29T09:04:17.912Z,98227.80
2019-05-29T09:06:53.382Z,98232.13
2019-05-29T09:09:28.102Z,98230.55
2019-05-29T09:12:02.575Z,98235.19
2019-05-29T09:14:36.953Z,98235.19
2019-05-29T09:17:11.979Z,98239.63
2019-05-29T09:19:46.527Z,98242.28
2019-05-29T09:22:21.125Z,98241.00
2019-05-29T09:24:55.655Z,98243.92
2019-05-29T09:27:30.094Z,98243.92
2019-05-29T09:30:04.726Z,98245.05
2019-05-29T09:32:50.003Z,98249.72
2019-05-29T09:35:17.452Z,98255.13
2019-05-29T09:37:52.291Z,98255.13
2019-05-29T09:40:27.668Z,98257.71
2019-05-29T09:43:03.283Z,98257.71
2019-05-29T09:45:37.902Z,98263.30
2019-05-29T09:48:12.664Z,98255.17
2019-05-29T09:50:50.565Z,98255.17
2019-05-29T09:53:23.261Z,98262.90
2019-05-29T09:55:59.068Z,98262.88
2019-05-29T09:58:34.101Z,98273.28
2019-05-29T10:01:21.732Z,98274.48
2019-05-29T10:03:45.743Z,98278.54
2019-05-29T10:06:18.701Z,98277.59
2019-05-29T10:08:54.108Z,98274.59
2019-05-29T10:11:28.999Z,98283.95
2019-05-29T10:14:27.602Z,98279.63
2019-05-29T10:17:09.247Z,98278.87
2019-05-29T10:19:39.651Z,98282.92
2019-05-29T10:22:14.130Z,98284.71
2019-05-29T10:24:48.761Z,98297.75
2019-05-29T10:27:23.748Z,98297.75
2019-05-29T10:29:58.398Z,98294.98
2019-05-29T10:32:32.978Z,98294.98
2019-05-29T10:35:07.948Z,98294.33
2019-05-29T10:37:42.764Z,98294.33
2019-05-29T10:40:17.752Z,98301.92
2019-05-29T10:42:51.563Z,98295.05
2019-05-29T10:45:26.289Z,98295.50
2019-05-29T10:48:00.915Z,98297.22
2019-05-29T10:50:35.674Z,98294.23
2019-05-29T10:53:10.271Z,98294.63
2019-05-29T10:55:46.390Z,98292.36
2019-05-29T10:58:20.947Z,98292.36
2019-05-29T11:00:55.611Z,98295.03
2019-05-29T11:03:30.112Z,98295.03
2019-05-29T11:06:04.716Z,98300.70
2019-05-29T11:08:38.953Z,98300.70
2019-05-29T11:11:13.340Z,98301.73
2019-05-29T11:13:48.650Z,98300.64
2019-05-29T11:16:21.790Z,98299.81
2019-05-29T11:18:55.953Z,98299.95
2019-05-29T11:21:30.463Z,98295.52
2019-05-29T11:24:04.951Z,98294.88
2019-05-29T11:26:39.285Z,98291.19
2019-05-29T11:29:13.936Z,98293.72
2019-05-29T11:31:48.668Z,98290.89
2019-05-29T11:34:23.076Z,98290.89
2019-05-29T11:36:58.353Z,98298.47
2019-05-29T11:39:32.946Z,98298.47
2019-05-29T11:42:07.563Z,98300.81
2019-05-29T11:44:42.090Z,98293.19
2019-05-29T11:47:16.707Z,98304.03
2019-05-29T11:49:50.884Z,98304.03
2019-05-29T11:52:41.555Z,98303.13
2019-05-29T11:55:07.061Z,98307.04
2019-05-29T11:57:39.660Z,98306.06
2019-05-29T12:00:20.387Z,98306.06
2019-05-29T12:02:51.263Z,98311.72
2019-05-29T12:05:26.324Z,98307.06
2019-05-29T12:08:01.925Z,98306.66
2019-05-29T12:10:36.862Z,98306.86
2019-05-29T12:13:11.306Z,98309.04
2019-05-29T12:15:45.778Z,98298.31
2019-05-29T12:18:24.335Z,98306.02
2019-05-29T12:20:56.324Z,98293.91
2019-05-29T12:23:31.095Z,98300.21
2019-05-29T12:26:21.176Z,98297.44
2019-05-29T12:28:42.095Z,98295.92
2019-05-29T12:31:16.719Z,98297.22
2019-05-29T12:33:51.189Z,98297.22
2019-05-29T12:36:25.706Z,98290.12
2019-05-29T12:38:59.634Z,98298.26
2019-05-29T12:41:33.681Z,98296.24
2019-05-29T12:44:06.856Z,98301.92
2019-05-29T12:46:39.646Z,98299.80
2019-05-29T12:49:13.944Z,98299.58
2019-05-29T12:51:48.272Z,98291.49
2019-05-29T12:54:22.868Z,98296.27
2019-05-29T12:56:57.859Z,98295.55
2019-05-29T12:59:32.615Z,98306.55
2019-05-29T13:02:07.281Z,98306.55
2019-05-29T13:05:06.408Z,98314.60
2019-05-29T13:07:17.948Z,98301.55
2019-05-29T13:09:52.274Z,98303.78
2019-05-29T13:12:26.800Z,98305.62
2019-05-29T13:15:00.735Z,98300.83
2019-05-29T13:17:36.690Z,98303.42
2019-05-29T13:20:21.238Z,98299.88
2019-05-29T13:22:48.132Z,98301.25
2019-05-29T13:25:22.749Z,98300.63
2019-05-29T13:27:59.330Z,98297.77
2019-05-29T13:30:33.346Z,98298.06
2019-05-29T13:33:09.045Z,98300.80
2019-05-29T13:35:45.634Z,98303.38
2019-05-29T13:38:20.177Z,98306.59
2019-05-29T13:40:56.128Z,98305.89
2019-05-29T13:43:30.944Z,98305.89
2019-05-29T13:46:05.643Z,98303.80
2019-05-29T13:48:40.094Z,98303.80
2019-05-29T13:51:14.330Z,98310.30
2019-05-29T13:54:02.429Z,98305.97
2019-05-29T13:56:24.955Z,98309.42
2019-05-29T13:58:59.868Z,98307.88
2019-05-29T14:01:34.559Z,98317.31
2019-05-29T14:04:10.779Z,98313.84
2019-05-29T14:06:43.791Z,98313.84
2019-05-29T14:09:17.940Z,98321.30
2019-05-29T14:11:52.281Z,98321.30
2019-05-29T14:14:26.754Z,98310.01
2019-05-29T14:17:00.389Z,98315.59
2019-05-29T14:19:34.860Z,98315.59
2019-05-29T14:22:09.359Z,98317.07
2019-05-29T14:24:43.956Z,98317.98
2019-05-29T14:27:18.653Z,98320.98
2019-05-29T14:29:51.860Z,98334.33
2019-05-29T14:34:24.679Z,98325.14
2019-05-29T14:36:59.280Z,98330.55
2019-05-29T14:39:33.695Z,98330.55
2019-05-29T14:42:08.244Z,98325.72
2019-05-29T14:44:42.746Z,98327.75
2019-05-29T14:47:17.278Z,98327.84
2019-05-29T14:49:51.686Z,98329.66
2019-05-29T14:52:24.689Z,98328.78
2019-05-29T14:54:58.943Z,98327.92
2019-05-29T14:57:32.015Z,98321.80
2019-05-29T15:00:18.813Z,98322.38
2019-05-29T15:02:44.795Z,98324.16
2019-05-29T15:05:21.304Z,98321.91
2019-05-29T15:07:56.303Z,98336.50
2019-05-29T15:10:31.276Z,98328.59
2019-05-29T15:13:06.653Z,98328.59
2019-05-29T15:15:39.777Z,98332.19
2019-05-29T15:18:18.550Z,98332.19
2019-05-29T15:20:49.949Z,98331.76
2019-05-29T15:23:24.289Z,98333.92
2019-05-29T15:26:00.997Z,98334.31
2019-05-29T15:28:35.931Z,98329.13
2019-05-29T15:31:10.532Z,98334.41
2019-05-29T15:33:45.338Z,98339.50
2019-05-29T15:36:19.723Z,98343.17
2019-05-29T15:38:54.257Z,98334.88
2019-05-29T15:41:29.164Z,98336.45
2019-05-29T15:44:03.864Z,98336.38
2019-05-29T15:46:38.685Z,98336.38
2019-05-29T15:49:13.399Z,98335.52
2019-05-29T15:51:48.287Z,98339.41
2019-05-29T15:54:23.707Z,98333.79
2019-05-29T15:56:58.285Z,98335.53
2019-05-29T15:59:33.879Z,98336.00
2019-05-29T16:04:52.792Z,98339.03
2019-05-29T16:07:35.359Z,98335.36
2019-05-29T16:10:13.073Z,98335.36
2019-05-29T16:12:46.865Z,98346.56
2019-05-29T16:15:20.493Z,98346.56
2019-05-29T16:17:54.682Z,98342.98
2019-05-29T16:20:29.290Z,98349.63
2019-05-29T16:23:05.778Z,98349.63
2019-05-29T16:26:07.123Z,98352.59
2019-05-29T16:28:42.308Z,98358.34
2019-05-29T16:31:17.156Z,98360.39
2019-05-29T16:33:51.765Z,98356.45
2019-05-29T16:36:26.451Z,98356.19
2019-05-29T16:39:01.342Z,98356.33
2019-05-29T16:41:37.711Z,98361.16
2019-05-29T16:44:11.996Z,98360.03
2019-05-29T16:46:46.952Z,98363.84
2019-05-29T16:49:21.445Z,98366.02
2019-05-29T16:51:57.173Z,98366.02
2019-05-29T16:54:31.753Z,98366.52
2019-05-29T16:57:05.098Z,98369.46
2019-05-29T16:59:39.668Z,98371.13
2019-05-29T17:02:15.510Z,98371.13
2019-05-29T17:04:50.288Z,98371.59
2019-05-29T17:07:25.858Z,98373.62
2019-05-29T17:10:00.370Z,98381.13
2019-05-29T17:12:35.291Z,98382.16
2019-05-29T17:15:12.435Z,98381.61
2019-05-29T17:17:47.300Z,98381.61
2019-05-29T17:20:40.748Z,98381.11
2019-05-29T17:23:18.719Z,98373.84
2019-05-29T17:26:09.229Z,98382.86
2019-05-29T17:28:29.353Z,98377.00
2019-05-29T17:31:04.291Z,98376.34
2019-05-29T17:33:39.283Z,98377.77
2019-05-29T17:36:14.911Z,98386.41
2019-05-29T17:38:49.973Z,98393.58
2019-05-29T17:41:25.342Z,98393.58
2019-05-29T17:43:59.951Z,98393.98
2019-05-29T17:46:35.624Z,98399.70
2019-05-29T17:49:10.371Z,98399.70
2019-05-29T17:51:45.007Z,98400.44
2019-05-29T17:54:19.852Z,98399.80
2019-05-29T17:56:54.659Z,98404.11
2019-05-29T17:59:31.307Z,98407.63
2019-05-29T18:02:08.747Z,98419.30
2019-05-29T18:04:43.300Z,98426.16
2019-05-29T18:07:18.412Z,98426.68
2019-05-29T18:09:53.292Z,98427.95
2019-05-29T18:12:29.115Z,98431.47
2019-05-29T18:15:05.704Z,98429.84
2019-05-29T18:17:44.238Z,98432.45
2019-05-29T18:20:19.759Z,98433.41
2019-05-29T18:22:54.144Z,98431.33
2019-05-29T18:25:28.715Z,98435.49
2019-05-29T18:28:03.082Z,98437.59
2019-05-29T18:30:37.770Z,98430.16
2019-05-29T18:33:10.878Z,98443.57
2019-05-29T18:35:45.278Z,98443.63
2019-05-29T18:38:20.229Z,98442.72
2019-05-29T18:40:54.898Z,98446.34
2019-05-29T18:43:28.732Z,98449.91
2019-05-29T18:46:03.121Z,98451.80
2019-05-29T18:48:37.939Z,98454.27
2019-05-29T18:51:12.335Z,98460.44
2019-05-29T18:53:46.949Z,98460.58
2019-05-29T18:56:21.871Z,98460.86
2019-05-29T18:58:56.362Z,98463.09
2019-05-29T19:01:31.744Z,98467.09
2019-05-29T19:04:04.799Z,98471.55
2019-05-29T19:06:39.138Z,98471.55
2019-05-29T19:09:13.586Z,98473.78
2019-05-29T19:11:47.938Z,98473.78
2019-05-29T19:14:22.375Z,98481.39
2019-05-29T19:16:57.950Z,98485.66
2019-05-29T19:19:33.289Z,98496.28
2019-05-29T19:22:07.876Z,98496.28
2019-05-29T19:24:40.867Z,98494.42
2019-05-29T19:27:30.052Z,98503.76
2019-05-29T19:29:51.289Z,98511.30
2019-05-29T19:32:27.153Z,98508.31
2019-05-29T19:35:01.802Z,98522.06
2019-05-29T19:37:37.938Z,98520.78
2019-05-29T19:40:13.365Z,98526.98
2019-05-29T19:42:47.960Z,98526.98
2019-05-29T19:45:21.286Z,98532.95
2019-05-29T19:47:55.553Z,98539.92
2019-05-29T19:50:30.880Z,98543.73
2019-05-29T19:53:04.049Z,98543.73
2019-05-29T19:55:38.275Z,98541.30
2019-05-29T19:58:12.784Z,98547.23
2019-05-29T20:00:45.890Z,98548.24
2019-05-29T20:03:21.329Z,98552.34
2019-05-29T20:05:55.788Z,98559.84
2019-05-29T20:08:32.588Z,98560.05
2019-05-29T20:11:04.712Z,98569.88
2019-05-29T20:13:38.954Z,98570.76
2019-05-29T20:16:12.028Z,98569.41
2019-05-29T20:18:44.871Z,98571.75
2019-05-29T20:21:19.121Z,98573.87
2019-05-29T20:23:54.662Z,98575.42
2019-05-29T20:26:29.180Z,98575.42
2019-05-29T20:29:04.767Z,98585.11
2019-05-29T20:31:38.733Z,98585.11
2019-05-29T20:34:13.948Z,98596.80
2019-05-29T20:36:47.039Z,98596.80
2019-05-29T20:39:20.289Z,98595.91
2019-05-29T20:41:54.644Z,98593.17
2019-05-29T20:44:30.520Z,98593.17
2019-05-29T20:47:04.954Z,98599.52
2019-05-29T20:49:40.140Z,98602.03
2019-05-29T20:52:15.116Z,98609.17
2019-05-29T20:54:49.710Z,98610.27
2019-05-29T20:57:23.705Z,98610.27
2019-05-29T20:59:57.957Z,98611.53
2019-05-29T21:02:32.305Z,98611.28
2019-05-29T21:05:07.364Z,98606.19
2019-05-29T21:07:42.976Z,98614.41
2019-05-29T21:10:18.789Z,98618.16
2019-05-29T21:12:52.003Z,98618.16
2019-05-29T21:15:24.874Z,98622.54
2019-05-29T21:17:59.286Z,98624.08
2019-05-29T21:20:34.179Z,98629.20
2019-05-29T21:23:08.717Z,98625.69
2019-05-29T21:25:43.094Z,98626.17
2019-05-29T21:28:17.681Z,98622.16
2019-05-29T21:30:51.947Z,98622.16
2019-05-29T21:33:26.348Z,98622.18
2019-05-29T21:36:00.897Z,98622.18
2019-05-29T21:38:36.106Z,98628.67
2019-05-29T21:41:10.660Z,98631.92
2019-05-29T21:43:44.950Z,98632.86
2019-05-29T21:46:19.287Z,98632.86
2019-05-29T21:48:53.768Z,98633.77
2019-05-29T21:51:28.294Z,98637.48
2019-05-29T21:54:02.717Z,98632.07
2019-05-29T21:59:20.337Z,98633.78
2019-05-29T22:01:54.958Z,98632.86
2019-05-29T22:04:28.951Z,98637.78
2019-05-29T22:07:03.685Z,98640.55
2019-05-29T22:09:38.104Z,98643.95
2019-05-29T22:12:12.644Z,98648.73
2019-05-29T22:14:47.269Z,98648.73
2019-05-29T22:17:22.280Z,98644.09
2019-05-29T22:21:55.716Z,98652.73
2019-05-29T22:24:30.137Z,98652.70
2019-05-29T22:27:04.981Z,98652.99
2019-05-29T22:29:39.715Z,98664.57
2019-05-29T22:32:14.286Z,98662.08
2019-05-29T22:34:48.693Z,98664.69
2019-05-29T22:37:23.425Z,98648.95
2019-05-29T22:39:59.580Z,98654.36
2019-05-29T22:42:33.931Z,98653.41
2019-05-29T22:45:08.338Z,98659.24
2019-05-29T22:47:43.397Z,98659.24
2019-05-29T22:50:23.499Z,98658.75
2019-05-29T22:52:58.315Z,98659.07
2019-05-29T22:55:32.710Z,98660.45
2019-05-29T22:58:07.122Z,98660.45
2019-05-29T23:00:41.694Z,98665.05
2019-05-29T23:03:16.089Z,98658.84
2019-05-29T23:05:50.415Z,98651.75
2019-05-29T23:08:24.891Z,98651.75
2019-05-29T23:10:58.335Z,98651.89
2019-05-29T23:13:32.302Z,98654.89
2019-05-29T23:16:06.788Z,98654.89
2019-05-29T23:18:41.008Z,98655.33
2019-05-29T23:21:15.261Z,98656.10
2019-05-29T23:23:49.743Z,98654.20
2019-05-29T23:26:24.111Z,98658.02
2019-05-29T23:31:44.772Z,98660.95
2019-05-29T23:34:19.247Z,98650.36
2019-05-29T23:36:55.048Z,98654.59
2019-05-29T23:39:29.654Z,98654.85
2019-05-29T23:42:04.279Z,98658.54
2019-05-29T23:44:38.689Z,98646.80
2019-05-29T23:47:12.951Z,98642.64
2019-05-29T23:49:47.335Z,98647.10
2019-05-29T23:52:21.786Z,98648.62
2019-05-29T23:54:55.677Z,98640.12
2019-05-29T23:57:29.948Z,98649.19
